sensor_id;sensor_type;location;lat;lon;timestamp;P1;durP1;ratioP1;P2;durP2;ratioP2
14528;SDS011;7351;51.194;4.098;2023-03-03T00:01:16;10.43;;;9.73;;
14528;SDS011;7351;51.194;4.098;2023-03-03T00:03:43;11.37;;;10.47;;
14528;SDS011;7351;51.194;4.098;2023-03-03T00:06:11;10.50;;;9.80;;
14528;SDS011;7351;51.194;4.098;2023-03-03T00:08:39;11.47;;;10.67;;
14528;SDS011;7351;51.194;4.098;2023-03-03T00:11:07;11.87;;;10.97;;
14528;SDS011;7351;51.194;4.098;2023-03-03T00:13:39;11.67;;;10.87;;
14528;SDS011;7351;51.194;4.098;2023-03-03T00:16:12;11.17;;;10.27;;
14528;SDS011;7351;51.194;4.098;2023-03-03T00:18:42;11.80;;;11.00;;
14528;SDS011;7351;51.194;4.098;2023-03-03T00:26:59;13.00;;;12.10;;
14528;SDS011;7351;51.194;4.098;2023-03-03T00:29:36;11.10;;;10.30;;
14528;SDS011;7351;51.194;4.098;2023-03-03T00:32:17;11.50;;;10.70;;
14528;SDS011;7351;51.194;4.098;2023-03-03T00:34:48;11.60;;;10.70;;
14528;SDS011;7351;51.194;4.098;2023-03-03T00:37:22;11.30;;;10.60;;
14528;SDS011;7351;51.194;4.098;2023-03-03T00:39:52;12.43;;;11.30;;
14528;SDS011;7351;51.194;4.098;2023-03-03T00:42:19;11.97;;;11.07;;
14528;SDS011;7351;51.194;4.098;2023-03-03T00:44:52;12.43;;;11.57;;
14528;SDS011;7351;51.194;4.098;2023-03-03T00:47:26;12.57;;;11.67;;
14528;SDS011;7351;51.194;4.098;2023-03-03T00:49:55;11.97;;;11.07;;
14528;SDS011;7351;51.194;4.098;2023-03-03T00:52:44;12.90;;;11.90;;
14528;SDS011;7351;51.194;4.098;2023-03-03T00:55:17;12.80;;;11.80;;
14528;SDS011;7351;51.194;4.098;2023-03-03T00:57:44;11.80;;;10.97;;
14528;SDS011;7351;51.194;4.098;2023-03-03T01:00:13;12.53;;;11.63;;
14528;SDS011;7351;51.194;4.098;2023-03-03T01:02:40;11.67;;;10.87;;
14528;SDS011;7351;51.194;4.098;2023-03-03T01:05:11;14.60;;;12.37;;
14528;SDS011;7351;51.194;4.098;2023-03-03T01:07:39;13.87;;;12.50;;
14528;SDS011;7351;51.194;4.098;2023-03-03T01:10:06;14.17;;;13.07;;
14528;SDS011;7351;51.194;4.098;2023-03-03T01:12:33;14.03;;;12.67;;
14528;SDS011;7351;51.194;4.098;2023-03-03T01:15:03;14.33;;;13.33;;
14528;SDS011;7351;51.194;4.098;2023-03-03T01:17:32;14.70;;;13.50;;
14528;SDS011;7351;51.194;4.098;2023-03-03T01:19:59;14.13;;;13.03;;
14528;SDS011;7351;51.194;4.098;2023-03-03T01:22:26;15.03;;;14.03;;
14528;SDS011;7351;51.194;4.098;2023-03-03T01:24:53;14.23;;;13.33;;
14528;SDS011;7351;51.194;4.098;2023-03-03T01:27:20;13.43;;;12.43;;
14528;SDS011;7351;51.194;4.098;2023-03-03T01:29:47;15.50;;;14.10;;
14528;SDS011;7351;51.194;4.098;2023-03-03T01:32:14;14.97;;;13.77;;
14528;SDS011;7351;51.194;4.098;2023-03-03T01:34:42;15.77;;;14.67;;
14528;SDS011;7351;51.194;4.098;2023-03-03T01:37:09;15.33;;;14.23;;
14528;SDS011;7351;51.194;4.098;2023-03-03T01:39:36;15.13;;;14.00;;
14528;SDS011;7351;51.194;4.098;2023-03-03T01:42:03;16.57;;;15.37;;
14528;SDS011;7351;51.194;4.098;2023-03-03T01:44:30;16.20;;;15.10;;
14528;SDS011;7351;51.194;4.098;2023-03-03T01:46:57;15.43;;;14.30;;
14528;SDS011;7351;51.194;4.098;2023-03-03T01:49:30;16.27;;;15.17;;
14528;SDS011;7351;51.194;4.098;2023-03-03T01:52:03;15.60;;;14.60;;
14528;SDS011;7351;51.194;4.098;2023-03-03T01:54:39;16.23;;;14.90;;
14528;SDS011;7351;51.194;4.098;2023-03-03T01:57:10;18.17;;;16.60;;
14528;SDS011;7351;51.194;4.098;2023-03-03T01:59:41;17.23;;;15.73;;
14528;SDS011;7351;51.194;4.098;2023-03-03T02:02:11;16.37;;;15.27;;
14528;SDS011;7351;51.194;4.098;2023-03-03T02:04:38;16.47;;;15.37;;
14528;SDS011;7351;51.194;4.098;2023-03-03T02:07:08;16.63;;;15.53;;
14528;SDS011;7351;51.194;4.098;2023-03-03T02:09:38;15.27;;;14.27;;
14528;SDS011;7351;51.194;4.098;2023-03-03T02:12:12;17.27;;;16.07;;
14528;SDS011;7351;51.194;4.098;2023-03-03T02:14:42;17.27;;;15.97;;
14528;SDS011;7351;51.194;4.098;2023-03-03T02:17:09;16.77;;;15.60;;
14528;SDS011;7351;51.194;4.098;2023-03-03T02:19:39;17.37;;;15.87;;
14528;SDS011;7351;51.194;4.098;2023-03-03T02:22:15;18.43;;;17.23;;
14528;SDS011;7351;51.194;4.098;2023-03-03T02:24:47;17.07;;;15.83;;
14528;SDS011;7351;51.194;4.098;2023-03-03T02:27:19;16.67;;;15.57;;
14528;SDS011;7351;51.194;4.098;2023-03-03T02:29:46;17.03;;;15.83;;
14528;SDS011;7351;51.194;4.098;2023-03-03T02:32:13;18.17;;;16.87;;
14528;SDS011;7351;51.194;4.098;2023-03-03T02:34:45;17.00;;;15.83;;
14528;SDS011;7351;51.194;4.098;2023-03-03T02:37:13;16.10;;;15.00;;
14528;SDS011;7351;51.194;4.098;2023-03-03T02:39:40;16.63;;;15.53;;
14528;SDS011;7351;51.194;4.098;2023-03-03T02:42:07;16.90;;;15.77;;
14528;SDS011;7351;51.194;4.098;2023-03-03T02:44:42;19.23;;;17.83;;
14528;SDS011;7351;51.194;4.098;2023-03-03T02:47:11;17.07;;;15.97;;
14528;SDS011;7351;51.194;4.098;2023-03-03T02:49:38;16.87;;;15.77;;
14528;SDS011;7351;51.194;4.098;2023-03-03T02:52:06;15.03;;;13.93;;
14528;SDS011;7351;51.194;4.098;2023-03-03T02:54:35;17.50;;;16.20;;
14528;SDS011;7351;51.194;4.098;2023-03-03T02:57:02;16.13;;;15.13;;
14528;SDS011;7351;51.194;4.098;2023-03-03T02:59:30;18.20;;;16.87;;
14528;SDS011;7351;51.194;4.098;2023-03-03T03:01:58;18.00;;;16.80;;
14528;SDS011;7351;51.194;4.098;2023-03-03T03:04:26;15.90;;;14.80;;
14528;SDS011;7351;51.194;4.098;2023-03-03T03:06:54;17.97;;;16.77;;
14528;SDS011;7351;51.194;4.098;2023-03-03T03:09:21;17.53;;;16.33;;
14528;SDS011;7351;51.194;4.098;2023-03-03T03:11:49;17.03;;;15.93;;
14528;SDS011;7351;51.194;4.098;2023-03-03T03:14:16;16.37;;;15.27;;
14528;SDS011;7351;51.194;4.098;2023-03-03T03:16:43;16.50;;;15.40;;
14528;SDS011;7351;51.194;4.098;2023-03-03T03:19:12;15.57;;;14.57;;
14528;SDS011;7351;51.194;4.098;2023-03-03T03:21:40;17.17;;;16.07;;
14528;SDS011;7351;51.194;4.098;2023-03-03T03:24:07;15.73;;;14.73;;
14528;SDS011;7351;51.194;4.098;2023-03-03T03:26:34;17.43;;;16.10;;
14528;SDS011;7351;51.194;4.098;2023-03-03T03:29:00;15.80;;;14.70;;
14528;SDS011;7351;51.194;4.098;2023-03-03T03:31:28;15.67;;;14.70;;
14528;SDS011;7351;51.194;4.098;2023-03-03T03:33:55;15.83;;;14.83;;
14528;SDS011;7351;51.194;4.098;2023-03-03T03:36:26;14.70;;;13.80;;
14528;SDS011;7351;51.194;4.098;2023-03-03T03:38:53;14.37;;;13.37;;
14528;SDS011;7351;51.194;4.098;2023-03-03T03:41:20;14.70;;;13.70;;
14528;SDS011;7351;51.194;4.098;2023-03-03T03:43:47;14.23;;;13.33;;
14528;SDS011;7351;51.194;4.098;2023-03-03T03:46:14;14.10;;;13.07;;
14528;SDS011;7351;51.194;4.098;2023-03-03T03:48:41;14.00;;;12.90;;
14528;SDS011;7351;51.194;4.098;2023-03-03T03:51:08;13.20;;;12.30;;
14528;SDS011;7351;51.194;4.098;2023-03-03T03:53:37;12.80;;;11.70;;
14528;SDS011;7351;51.194;4.098;2023-03-03T03:56:05;12.63;;;11.83;;
14528;SDS011;7351;51.194;4.098;2023-03-03T03:58:32;12.23;;;11.43;;
14528;SDS011;7351;51.194;4.098;2023-03-03T04:01:00;13.77;;;12.87;;
14528;SDS011;7351;51.194;4.098;2023-03-03T04:03:28;11.93;;;11.23;;
14528;SDS011;7351;51.194;4.098;2023-03-03T04:05:56;11.80;;;11.10;;
14528;SDS011;7351;51.194;4.098;2023-03-03T04:08:22;11.67;;;10.97;;
14528;SDS011;7351;51.194;4.098;2023-03-03T04:10:51;11.67;;;10.97;;
14528;SDS011;7351;51.194;4.098;2023-03-03T04:13:18;12.17;;;11.33;;
14528;SDS011;7351;51.194;4.098;2023-03-03T04:15:45;11.13;;;10.43;;
14528;SDS011;7351;51.194;4.098;2023-03-03T04:18:12;10.80;;;10.07;;
14528;SDS011;7351;51.194;4.098;2023-03-03T04:20:39;11.50;;;10.70;;
14528;SDS011;7351;51.194;4.098;2023-03-03T04:23:06;11.10;;;10.30;;
14528;SDS011;7351;51.194;4.098;2023-03-03T04:25:33;10.20;;;9.33;;
14528;SDS011;7351;51.194;4.098;2023-03-03T04:28:01;9.63;;;9.00;;
14528;SDS011;7351;51.194;4.098;2023-03-03T04:30:28;9.90;;;9.20;;
14528;SDS011;7351;51.194;4.098;2023-03-03T04:32:55;9.53;;;8.93;;
14528;SDS011;7351;51.194;4.098;2023-03-03T04:35:22;10.43;;;9.63;;
14528;SDS011;7351;51.194;4.098;2023-03-03T04:37:49;8.10;;;7.60;;
14528;SDS011;7351;51.194;4.098;2023-03-03T04:40:16;9.10;;;8.37;;
14528;SDS011;7351;51.194;4.098;2023-03-03T04:42:43;8.67;;;8.07;;
14528;SDS011;7351;51.194;4.098;2023-03-03T04:45:12;9.10;;;8.47;;
14528;SDS011;7351;51.194;4.098;2023-03-03T04:47:39;8.63;;;8.03;;
14528;SDS011;7351;51.194;4.098;2023-03-03T04:50:06;8.17;;;7.67;;
14528;SDS011;7351;51.194;4.098;2023-03-03T04:52:34;8.67;;;7.80;;
14528;SDS011;7351;51.194;4.098;2023-03-03T04:55:02;8.73;;;8.10;;
14528;SDS011;7351;51.194;4.098;2023-03-03T04:57:29;8.80;;;8.27;;
14528;SDS011;7351;51.194;4.098;2023-03-03T04:59:56;11.13;;;10.33;;
14528;SDS011;7351;51.194;4.098;2023-03-03T05:02:24;9.83;;;9.13;;
14528;SDS011;7351;51.194;4.098;2023-03-03T05:04:51;9.93;;;8.90;;
14528;SDS011;7351;51.194;4.098;2023-03-03T05:07:18;9.63;;;9.03;;
14528;SDS011;7351;51.194;4.098;2023-03-03T05:09:45;11.57;;;10.73;;
14528;SDS011;7351;51.194;4.098;2023-03-03T05:12:12;10.97;;;9.87;;
14528;SDS011;7351;51.194;4.098;2023-03-03T05:14:40;11.10;;;10.30;;
14528;SDS011;7351;51.194;4.098;2023-03-03T05:17:07;14.53;;;13.10;;
14528;SDS011;7351;51.194;4.098;2023-03-03T05:19:35;12.67;;;11.33;;
14528;SDS011;7351;51.194;4.098;2023-03-03T05:22:02;12.77;;;11.77;;
14528;SDS011;7351;51.194;4.098;2023-03-03T05:24:29;13.30;;;12.13;;
14528;SDS011;7351;51.194;4.098;2023-03-03T05:26:56;13.90;;;12.57;;
14528;SDS011;7351;51.194;4.098;2023-03-03T05:29:23;12.40;;;11.47;;
14528;SDS011;7351;51.194;4.098;2023-03-03T05:31:51;14.43;;;12.90;;
14528;SDS011;7351;51.194;4.098;2023-03-03T05:34:23;14.27;;;13.07;;
14528;SDS011;7351;51.194;4.098;2023-03-03T05:36:51;12.57;;;11.60;;
14528;SDS011;7351;51.194;4.098;2023-03-03T05:39:18;14.77;;;13.20;;
14528;SDS011;7351;51.194;4.098;2023-03-03T05:41:45;12.50;;;11.47;;
14528;SDS011;7351;51.194;4.098;2023-03-03T05:44:12;12.97;;;12.07;;
14528;SDS011;7351;51.194;4.098;2023-03-03T05:46:39;14.40;;;13.27;;
14528;SDS011;7351;51.194;4.098;2023-03-03T05:49:06;13.63;;;12.73;;
14528;SDS011;7351;51.194;4.098;2023-03-03T05:51:33;14.60;;;13.53;;
14528;SDS011;7351;51.194;4.098;2023-03-03T05:54:02;14.07;;;13.07;;
14528;SDS011;7351;51.194;4.098;2023-03-03T05:56:29;13.03;;;11.97;;
14528;SDS011;7351;51.194;4.098;2023-03-03T05:58:56;12.83;;;11.77;;
14528;SDS011;7351;51.194;4.098;2023-03-03T06:01:23;13.23;;;12.10;;
14528;SDS011;7351;51.194;4.098;2023-03-03T06:03:51;12.73;;;11.80;;
14528;SDS011;7351;51.194;4.098;2023-03-03T06:06:18;13.50;;;12.53;;
14528;SDS011;7351;51.194;4.098;2023-03-03T06:08:45;13.53;;;12.43;;
14528;SDS011;7351;51.194;4.098;2023-03-03T06:11:13;12.63;;;11.80;;
14528;SDS011;7351;51.194;4.098;2023-03-03T06:13:42;14.00;;;12.90;;
14528;SDS011;7351;51.194;4.098;2023-03-03T06:16:09;12.53;;;11.57;;
14528;SDS011;7351;51.194;4.098;2023-03-03T06:18:36;12.40;;;11.60;;
14528;SDS011;7351;51.194;4.098;2023-03-03T06:21:03;13.90;;;12.90;;
14528;SDS011;7351;51.194;4.098;2023-03-03T06:23:30;13.00;;;12.07;;
14528;SDS011;7351;51.194;4.098;2023-03-03T06:25:57;12.13;;;11.30;;
14528;SDS011;7351;51.194;4.098;2023-03-03T06:28:26;13.10;;;12.10;;
14528;SDS011;7351;51.194;4.098;2023-03-03T06:30:53;12.57;;;11.57;;
14528;SDS011;7351;51.194;4.098;2023-03-03T06:33:20;12.77;;;11.77;;
14528;SDS011;7351;51.194;4.098;2023-03-03T06:35:48;12.63;;;11.80;;
14528;SDS011;7351;51.194;4.098;2023-03-03T06:38:16;11.67;;;10.93;;
14528;SDS011;7351;51.194;4.098;2023-03-03T06:40:43;12.47;;;11.57;;
14528;SDS011;7351;51.194;4.098;2023-03-03T06:43:10;13.10;;;12.20;;
14528;SDS011;7351;51.194;4.098;2023-03-03T06:45:38;12.57;;;11.77;;
14528;SDS011;7351;51.194;4.098;2023-03-03T06:48:05;12.57;;;11.77;;
14528;SDS011;7351;51.194;4.098;2023-03-03T06:50:32;12.87;;;11.97;;
14528;SDS011;7351;51.194;4.098;2023-03-03T06:53:01;12.07;;;11.23;;
14528;SDS011;7351;51.194;4.098;2023-03-03T06:55:35;12.73;;;11.90;;
14528;SDS011;7351;51.194;4.098;2023-03-03T06:58:04;11.73;;;10.93;;
14528;SDS011;7351;51.194;4.098;2023-03-03T07:00:36;13.60;;;12.70;;
14528;SDS011;7351;51.194;4.098;2023-03-03T07:03:07;12.17;;;11.27;;
14528;SDS011;7351;51.194;4.098;2023-03-03T07:05:39;13.27;;;12.17;;
14528;SDS011;7351;51.194;4.098;2023-03-03T07:08:08;11.63;;;10.73;;
14528;SDS011;7351;51.194;4.098;2023-03-03T07:10:40;13.10;;;12.13;;
14528;SDS011;7351;51.194;4.098;2023-03-03T07:13:15;12.63;;;11.77;;
14528;SDS011;7351;51.194;4.098;2023-03-03T07:15:44;13.00;;;12.10;;
14528;SDS011;7351;51.194;4.098;2023-03-03T07:18:22;12.80;;;11.90;;
14528;SDS011;7351;51.194;4.098;2023-03-03T07:20:56;12.43;;;11.63;;
14528;SDS011;7351;51.194;4.098;2023-03-03T07:23:24;13.20;;;12.10;;
14528;SDS011;7351;51.194;4.098;2023-03-03T07:25:53;12.80;;;11.83;;
14528;SDS011;7351;51.194;4.098;2023-03-03T07:28:21;12.60;;;11.80;;
14528;SDS011;7351;51.194;4.098;2023-03-03T07:30:50;12.97;;;12.17;;
14528;SDS011;7351;51.194;4.098;2023-03-03T07:33:18;13.63;;;12.53;;
14528;SDS011;7351;51.194;4.098;2023-03-03T07:35:53;14.43;;;13.43;;
14528;SDS011;7351;51.194;4.098;2023-03-03T07:38:24;13.17;;;12.27;;
14528;SDS011;7351;51.194;4.098;2023-03-03T07:40:56;13.13;;;12.23;;
14528;SDS011;7351;51.194;4.098;2023-03-03T07:43:28;12.73;;;11.93;;
14528;SDS011;7351;51.194;4.098;2023-03-03T07:46:00;14.77;;;13.67;;
14528;SDS011;7351;51.194;4.098;2023-03-03T07:48:41;12.47;;;11.67;;
14528;SDS011;7351;51.194;4.098;2023-03-03T07:51:11;15.57;;;14.37;;
14528;SDS011;7351;51.194;4.098;2023-03-03T07:53:41;14.43;;;13.23;;
14528;SDS011;7351;51.194;4.098;2023-03-03T07:56:14;14.63;;;13.70;;
14528;SDS011;7351;51.194;4.098;2023-03-03T07:58:53;15.40;;;14.23;;
14528;SDS011;7351;51.194;4.098;2023-03-03T08:01:37;14.97;;;13.97;;
14528;SDS011;7351;51.194;4.098;2023-03-03T08:04:17;13.60;;;12.60;;
14528;SDS011;7351;51.194;4.098;2023-03-03T08:06:49;15.10;;;14.10;;
14528;SDS011;7351;51.194;4.098;2023-03-03T08:09:24;15.70;;;14.47;;
14528;SDS011;7351;51.194;4.098;2023-03-03T08:12:04;16.07;;;14.87;;
14528;SDS011;7351;51.194;4.098;2023-03-03T08:14:51;16.63;;;15.33;;
14528;SDS011;7351;51.194;4.098;2023-03-03T08:17:20;17.07;;;15.43;;
14528;SDS011;7351;51.194;4.098;2023-03-03T08:19:50;16.67;;;14.83;;
14528;SDS011;7351;51.194;4.098;2023-03-03T08:22:22;16.07;;;14.83;;
14528;SDS011;7351;51.194;4.098;2023-03-03T08:24:55;15.73;;;14.37;;
14528;SDS011;7351;51.194;4.098;2023-03-03T08:27:22;17.07;;;15.77;;
14528;SDS011;7351;51.194;4.098;2023-03-03T08:29:49;18.27;;;16.97;;
14528;SDS011;7351;51.194;4.098;2023-03-03T08:32:16;18.23;;;16.80;;
14528;SDS011;7351;51.194;4.098;2023-03-03T08:34:43;17.40;;;16.20;;
14528;SDS011;7351;51.194;4.098;2023-03-03T08:37:11;17.53;;;16.13;;
14528;SDS011;7351;51.194;4.098;2023-03-03T08:39:38;19.67;;;18.10;;
14528;SDS011;7351;51.194;4.098;2023-03-03T08:42:05;17.93;;;16.67;;
14528;SDS011;7351;51.194;4.098;2023-03-03T08:44:32;18.43;;;17.13;;
14528;SDS011;7351;51.194;4.098;2023-03-03T08:46:59;16.73;;;15.20;;
14528;SDS011;7351;51.194;4.098;2023-03-03T08:49:26;16.67;;;15.47;;
14528;SDS011;7351;51.194;4.098;2023-03-03T08:51:53;16.50;;;15.17;;
14528;SDS011;7351;51.194;4.098;2023-03-03T08:54:22;17.93;;;16.63;;
14528;SDS011;7351;51.194;4.098;2023-03-03T08:56:49;16.63;;;15.30;;
14528;SDS011;7351;51.194;4.098;2023-03-03T08:59:16;14.43;;;13.27;;
14528;SDS011;7351;51.194;4.098;2023-03-03T09:01:43;15.30;;;14.00;;
14528;SDS011;7351;51.194;4.098;2023-03-03T09:04:10;17.13;;;15.40;;
14528;SDS011;7351;51.194;4.098;2023-03-03T09:06:37;14.83;;;13.83;;
14528;SDS011;7351;51.194;4.098;2023-03-03T09:09:04;16.70;;;15.17;;
14528;SDS011;7351;51.194;4.098;2023-03-03T09:11:32;15.80;;;14.63;;
14528;SDS011;7351;51.194;4.098;2023-03-03T09:14:01;16.27;;;15.10;;
14528;SDS011;7351;51.194;4.098;2023-03-03T09:16:36;16.80;;;15.50;;
14528;SDS011;7351;51.194;4.098;2023-03-03T09:19:18;17.73;;;16.13;;
14528;SDS011;7351;51.194;4.098;2023-03-03T09:21:48;16.00;;;14.90;;
14528;SDS011;7351;51.194;4.098;2023-03-03T09:24:21;15.03;;;13.80;;
14528;SDS011;7351;51.194;4.098;2023-03-03T09:26:53;17.83;;;16.43;;
14528;SDS011;7351;51.194;4.098;2023-03-03T09:29:23;14.53;;;13.43;;
14528;SDS011;7351;51.194;4.098;2023-03-03T09:31:53;15.23;;;14.13;;
14528;SDS011;7351;51.194;4.098;2023-03-03T09:34:23;15.83;;;14.63;;
14528;SDS011;7351;51.194;4.098;2023-03-03T09:36:52;15.97;;;14.87;;
14528;SDS011;7351;51.194;4.098;2023-03-03T09:39:21;14.40;;;13.40;;
14528;SDS011;7351;51.194;4.098;2023-03-03T09:45:07;15.67;;;14.57;;
14528;SDS011;7351;51.194;4.098;2023-03-03T09:51:05;14.27;;;13.10;;
14528;SDS011;7351;51.194;4.098;2023-03-03T09:53:53;14.57;;;13.57;;
14528;SDS011;7351;51.194;4.098;2023-03-03T09:56:30;15.73;;;14.57;;
14528;SDS011;7351;51.194;4.098;2023-03-03T09:59:08;16.37;;;15.27;;
14528;SDS011;7351;51.194;4.098;2023-03-03T10:01:59;15.17;;;14.07;;
14528;SDS011;7351;51.194;4.098;2023-03-03T10:04:41;16.73;;;15.43;;
14528;SDS011;7351;51.194;4.098;2023-03-03T10:07:18;15.10;;;13.80;;
14528;SDS011;7351;51.194;4.098;2023-03-03T10:10:09;14.97;;;13.87;;
14528;SDS011;7351;51.194;4.098;2023-03-03T10:13:03;13.57;;;12.63;;
14528;SDS011;7351;51.194;4.098;2023-03-03T10:15:45;15.40;;;14.20;;
14528;SDS011;7351;51.194;4.098;2023-03-03T10:18:22;14.43;;;13.53;;
14528;SDS011;7351;51.194;4.098;2023-03-03T10:21:01;14.17;;;13.17;;
14528;SDS011;7351;51.194;4.098;2023-03-03T10:26:22;15.13;;;13.93;;
14528;SDS011;7351;51.194;4.098;2023-03-03T10:29:08;13.50;;;12.57;;
14528;SDS011;7351;51.194;4.098;2023-03-03T10:31:47;13.67;;;12.77;;
14528;SDS011;7351;51.194;4.098;2023-03-03T10:34:24;14.33;;;13.23;;
14528;SDS011;7351;51.194;4.098;2023-03-03T10:37:12;14.30;;;13.20;;
14528;SDS011;7351;51.194;4.098;2023-03-03T10:39:49;12.50;;;11.60;;
14528;SDS011;7351;51.194;4.098;2023-03-03T10:45:30;13.00;;;12.03;;
14528;SDS011;7351;51.194;4.098;2023-03-03T10:48:14;12.20;;;11.10;;
14528;SDS011;7351;51.194;4.098;2023-03-03T10:50:56;12.13;;;11.20;;
14528;SDS011;7351;51.194;4.098;2023-03-03T10:53:30;12.77;;;11.87;;
14528;SDS011;7351;51.194;4.098;2023-03-03T10:56:05;12.10;;;11.20;;
14528;SDS011;7351;51.194;4.098;2023-03-03T11:01:30;11.90;;;11.03;;
14528;SDS011;7351;51.194;4.098;2023-03-03T11:04:18;11.73;;;10.83;;
14528;SDS011;7351;51.194;4.098;2023-03-03T11:06:51;12.10;;;11.20;;
14528;SDS011;7351;51.194;4.098;2023-03-03T11:09:32;11.43;;;10.63;;
14528;SDS011;7351;51.194;4.098;2023-03-03T11:12:09;10.40;;;9.70;;
14528;SDS011;7351;51.194;4.098;2023-03-03T11:14:48;10.37;;;9.67;;
14528;SDS011;7351;51.194;4.098;2023-03-03T11:17:25;10.97;;;10.27;;
14528;SDS011;7351;51.194;4.098;2023-03-03T11:20:02;10.30;;;9.60;;
14528;SDS011;7351;51.194;4.098;2023-03-03T11:22:37;10.63;;;9.93;;
14528;SDS011;7351;51.194;4.098;2023-03-03T11:25:17;11.67;;;10.87;;
14528;SDS011;7351;51.194;4.098;2023-03-03T11:31:03;10.70;;;9.97;;
14528;SDS011;7351;51.194;4.098;2023-03-03T11:33:37;11.83;;;10.87;;
14528;SDS011;7351;51.194;4.098;2023-03-03T11:36:13;10.03;;;9.30;;
14528;SDS011;7351;51.194;4.098;2023-03-03T11:38:47;10.67;;;9.97;;
14528;SDS011;7351;51.194;4.098;2023-03-03T11:41:22;9.93;;;9.23;;
14528;SDS011;7351;51.194;4.098;2023-03-03T11:43:56;11.77;;;10.97;;
14528;SDS011;7351;51.194;4.098;2023-03-03T11:46:29;10.97;;;10.20;;
14528;SDS011;7351;51.194;4.098;2023-03-03T11:49:02;10.20;;;9.47;;
14528;SDS011;7351;51.194;4.098;2023-03-03T11:51:35;10.87;;;10.17;;
14528;SDS011;7351;51.194;4.098;2023-03-03T11:54:14;11.53;;;10.83;;
14528;SDS011;7351;51.194;4.098;2023-03-03T11:56:47;10.57;;;9.87;;
14528;SDS011;7351;51.194;4.098;2023-03-03T11:59:27;10.20;;;9.57;;
14528;SDS011;7351;51.194;4.098;2023-03-03T12:02:12;11.27;;;10.53;;
14528;SDS011;7351;51.194;4.098;2023-03-03T12:04:49;10.47;;;9.87;;
14528;SDS011;7351;51.194;4.098;2023-03-03T12:07:23;11.03;;;10.33;;
14528;SDS011;7351;51.194;4.098;2023-03-03T12:09:59;10.27;;;9.57;;
14528;SDS011;7351;51.194;4.098;2023-03-03T12:12:35;11.03;;;10.30;;
14528;SDS011;7351;51.194;4.098;2023-03-03T12:15:12;9.83;;;9.23;;
14528;SDS011;7351;51.194;4.098;2023-03-03T12:17:51;10.13;;;9.50;;
14528;SDS011;7351;51.194;4.098;2023-03-03T12:20:31;9.77;;;9.17;;
14528;SDS011;7351;51.194;4.098;2023-03-03T12:23:12;9.50;;;8.90;;
14528;SDS011;7351;51.194;4.098;2023-03-03T12:25:55;9.93;;;9.13;;
14528;SDS011;7351;51.194;4.098;2023-03-03T12:28:27;9.23;;;8.63;;
14528;SDS011;7351;51.194;4.098;2023-03-03T12:31:15;9.77;;;9.17;;
14528;SDS011;7351;51.194;4.098;2023-03-03T12:34:00;9.77;;;9.17;;
14528;SDS011;7351;51.194;4.098;2023-03-03T12:36:35;9.67;;;9.03;;
14528;SDS011;7351;51.194;4.098;2023-03-03T12:39:19;10.80;;;10.00;;
14528;SDS011;7351;51.194;4.098;2023-03-03T12:41:55;11.20;;;10.40;;
14528;SDS011;7351;51.194;4.098;2023-03-03T12:44:29;10.23;;;9.60;;
14528;SDS011;7351;51.194;4.098;2023-03-03T12:47:05;9.53;;;8.93;;
14528;SDS011;7351;51.194;4.098;2023-03-03T12:49:41;10.00;;;9.17;;
14528;SDS011;7351;51.194;4.098;2023-03-03T12:52:20;9.40;;;8.80;;
14528;SDS011;7351;51.194;4.098;2023-03-03T12:55:01;9.40;;;8.70;;
14528;SDS011;7351;51.194;4.098;2023-03-03T12:57:37;8.67;;;8.07;;
14528;SDS011;7351;51.194;4.098;2023-03-03T13:00:22;10.00;;;9.30;;
14528;SDS011;7351;51.194;4.098;2023-03-03T13:02:58;9.87;;;9.17;;
14528;SDS011;7351;51.194;4.098;2023-03-03T13:05:32;8.30;;;7.80;;
14528;SDS011;7351;51.194;4.098;2023-03-03T13:08:17;9.63;;;8.93;;
14528;SDS011;7351;51.194;4.098;2023-03-03T13:10:57;9.03;;;8.33;;
14528;SDS011;7351;51.194;4.098;2023-03-03T13:13:33;8.47;;;7.97;;
14528;SDS011;7351;51.194;4.098;2023-03-03T13:16:09;8.20;;;7.60;;
14528;SDS011;7351;51.194;4.098;2023-03-03T13:18:42;8.90;;;8.30;;
14528;SDS011;7351;51.194;4.098;2023-03-03T13:21:18;8.60;;;8.00;;
14528;SDS011;7351;51.194;4.098;2023-03-03T13:23:51;8.13;;;7.63;;
14528;SDS011;7351;51.194;4.098;2023-03-03T13:26:25;8.13;;;7.63;;
14528;SDS011;7351;51.194;4.098;2023-03-03T13:29:02;8.50;;;8.00;;
14528;SDS011;7351;51.194;4.098;2023-03-03T13:31:37;8.90;;;8.30;;
14528;SDS011;7351;51.194;4.098;2023-03-03T13:34:07;8.23;;;7.73;;
14528;SDS011;7351;51.194;4.098;2023-03-03T13:36:44;8.03;;;7.53;;
14528;SDS011;7351;51.194;4.098;2023-03-03T13:39:18;7.67;;;7.17;;
14528;SDS011;7351;51.194;4.098;2023-03-03T13:41:50;8.00;;;7.53;;
14528;SDS011;7351;51.194;4.098;2023-03-03T13:44:27;8.13;;;7.43;;
14528;SDS011;7351;51.194;4.098;2023-03-03T13:47:02;7.57;;;7.17;;
14528;SDS011;7351;51.194;4.098;2023-03-03T13:49:46;6.87;;;6.33;;
14528;SDS011;7351;51.194;4.098;2023-03-03T13:52:26;7.80;;;7.30;;
14528;SDS011;7351;51.194;4.098;2023-03-03T13:54:58;7.87;;;7.37;;
14528;SDS011;7351;51.194;4.098;2023-03-03T13:57:47;8.07;;;7.47;;
14528;SDS011;7351;51.194;4.098;2023-03-03T14:00:23;7.70;;;7.10;;
14528;SDS011;7351;51.194;4.098;2023-03-03T14:03:19;7.53;;;7.13;;
14528;SDS011;7351;51.194;4.098;2023-03-03T14:05:55;7.90;;;7.30;;
14528;SDS011;7351;51.194;4.098;2023-03-03T14:08:28;6.77;;;6.37;;
14528;SDS011;7351;51.194;4.098;2023-03-03T14:11:09;7.67;;;7.17;;
14528;SDS011;7351;51.194;4.098;2023-03-03T14:13:43;6.80;;;6.30;;
14528;SDS011;7351;51.194;4.098;2023-03-03T14:16:20;7.07;;;6.67;;
14528;SDS011;7351;51.194;4.098;2023-03-03T14:19:01;6.57;;;6.07;;
14528;SDS011;7351;51.194;4.098;2023-03-03T14:21:34;6.90;;;6.30;;
14528;SDS011;7351;51.194;4.098;2023-03-03T14:24:06;6.77;;;6.33;;
14528;SDS011;7351;51.194;4.098;2023-03-03T14:26:44;6.77;;;6.27;;
14528;SDS011;7351;51.194;4.098;2023-03-03T14:29:18;7.00;;;6.50;;
14528;SDS011;7351;51.194;4.098;2023-03-03T14:31:48;7.03;;;6.43;;
14528;SDS011;7351;51.194;4.098;2023-03-03T14:34:25;6.30;;;5.90;;
14528;SDS011;7351;51.194;4.098;2023-03-03T14:37:09;6.47;;;6.07;;
14528;SDS011;7351;51.194;4.098;2023-03-03T14:39:48;6.27;;;5.73;;
14528;SDS011;7351;51.194;4.098;2023-03-03T14:42:30;5.67;;;5.27;;
14528;SDS011;7351;51.194;4.098;2023-03-03T14:45:11;6.20;;;5.63;;
14528;SDS011;7351;51.194;4.098;2023-03-03T14:47:46;7.43;;;6.67;;
14528;SDS011;7351;51.194;4.098;2023-03-03T14:50:28;5.83;;;5.43;;
14528;SDS011;7351;51.194;4.098;2023-03-03T14:53:19;6.83;;;6.23;;
14528;SDS011;7351;51.194;4.098;2023-03-03T14:55:49;6.13;;;5.53;;
14528;SDS011;7351;51.194;4.098;2023-03-03T14:58:27;6.10;;;5.70;;
14528;SDS011;7351;51.194;4.098;2023-03-03T15:01:07;12.73;;;5.70;;
14528;SDS011;7351;51.194;4.098;2023-03-03T15:03:43;7.73;;;5.30;;
14528;SDS011;7351;51.194;4.098;2023-03-03T15:06:13;6.07;;;4.97;;
14528;SDS011;7351;51.194;4.098;2023-03-03T15:11:52;5.57;;;5.07;;
14528;SDS011;7351;51.194;4.098;2023-03-03T15:14:22;7.37;;;5.57;;
14528;SDS011;7351;51.194;4.098;2023-03-03T15:16:56;6.33;;;5.73;;
14528;SDS011;7351;51.194;4.098;2023-03-03T15:19:47;6.17;;;4.97;;
14528;SDS011;7351;51.194;4.098;2023-03-03T15:22:28;5.43;;;5.03;;
14528;SDS011;7351;51.194;4.098;2023-03-03T15:25:08;5.57;;;5.17;;
14528;SDS011;7351;51.194;4.098;2023-03-03T15:27:41;5.10;;;4.13;;
14528;SDS011;7351;51.194;4.098;2023-03-03T15:30:15;5.50;;;4.57;;
14528;SDS011;7351;51.194;4.098;2023-03-03T15:32:52;5.10;;;4.60;;
14528;SDS011;7351;51.194;4.098;2023-03-03T15:35:26;6.80;;;4.93;;
14528;SDS011;7351;51.194;4.098;2023-03-03T15:38:03;5.73;;;3.97;;